createdAt,value
2022-12-19T00:01:32.999Z,101454.34
2022-12-19T00:04:02.428Z,101493.53
2022-12-19T00:06:34.429Z,101497.00
2022-12-19T00:09:01.040Z,101486.47
2022-12-19T00:11:29.563Z,101480.41
2022-12-19T00:13:56.723Z,101469.13
2022-12-19T00:16:25.364Z,101475.25
2022-12-19T00:18:54.831Z,101474.75
2022-12-19T00:21:23.938Z,101460.66
2022-12-19T00:23:50.983Z,101476.63
2022-12-19T00:26:30.106Z,101466.22
2022-12-19T00:28:59.889Z,101470.53
2022-12-19T00:31:30.054Z,101461.91
2022-12-19T00:33:56.983Z,101431.19
2022-12-19T00:36:26.057Z,101462.75
2022-12-19T00:38:54.398Z,101458.47
2022-12-19T00:41:26.258Z,101427.03
2022-12-19T00:43:58.492Z,101456.00
2022-12-19T00:46:29.175Z,101460.34
2022-12-19T00:48:55.872Z,101453.28
2022-12-19T00:51:25.124Z,101455.03
2022-12-19T00:53:53.467Z,101458.25
2022-12-19T00:56:23.757Z,101460.00
2022-12-19T00:58:50.565Z,101470.47
2022-12-19T01:01:19.909Z,101462.72
2022-12-19T01:04:11.252Z,101467.19
2022-12-19T01:06:34.372Z,101455.19
2022-12-19T01:09:01.966Z,101452.72
2022-12-19T01:11:47.073Z,101456.16
2022-12-19T01:14:20.752Z,101452.72
2022-12-19T01:16:49.503Z,101451.69
2022-12-19T01:19:16.089Z,101461.25
2022-12-19T01:21:42.634Z,101455.22
2022-12-19T01:24:09.786Z,101466.53
2022-12-19T01:26:36.388Z,101466.53
2022-12-19T01:29:02.909Z,101461.34
2022-12-19T01:31:29.522Z,101451.88
2022-12-19T01:33:56.068Z,101456.28
2022-12-19T01:36:22.704Z,101427.53
2022-12-19T01:38:49.173Z,101421.47
2022-12-19T01:41:15.724Z,101439.91
2022-12-19T01:44:01.078Z,101441.69
2022-12-19T01:46:34.123Z,101430.34
2022-12-19T01:49:02.522Z,101433.84
2022-12-19T01:51:37.299Z,101438.13
2022-12-19T01:54:09.351Z,101418.22
2022-12-19T01:56:41.358Z,101437.22
2022-12-19T01:59:12.655Z,101414.25
2022-12-19T02:01:51.899Z,101411.66
2022-12-19T02:04:20.291Z,101395.88
2022-12-19T02:06:47.392Z,101397.69
2022-12-19T02:09:16.035Z,101389.88
2022-12-19T02:11:42.595Z,101419.59
2022-12-19T02:14:09.349Z,101419.66
2022-12-19T02:17:17.310Z,101425.84
2022-12-19T02:20:05.272Z,101419.81
2022-12-19T02:23:05.822Z,101409.47
2022-12-19T02:25:38.414Z,101412.09
2022-12-19T02:28:31.306Z,101397.34
2022-12-19T02:31:23.008Z,101401.75
2022-12-19T02:34:07.495Z,101389.66
2022-12-19T02:36:46.835Z,101387.03
2022-12-19T02:39:26.252Z,101385.34
2022-12-19T02:41:58.587Z,101377.50
2022-12-19T02:44:40.139Z,101379.13
2022-12-19T02:47:08.677Z,101367.59
2022-12-19T02:49:36.842Z,101395.53
2022-12-19T02:52:26.551Z,101388.56
2022-12-19T02:54:57.306Z,101392.94
2022-12-19T02:57:23.693Z,101381.78
2022-12-19T03:00:01.069Z,101368.84
2022-12-19T03:03:00.722Z,101346.44
2022-12-19T03:05:55.134Z,101321.94
2022-12-19T03:08:39.821Z,101370.81
2022-12-19T03:11:13.410Z,101356.91
2022-12-19T03:14:03.708Z,101364.78
2022-12-19T03:16:30.304Z,101363.00
2022-12-19T03:18:57.854Z,101371.63
2022-12-19T03:21:36.228Z,101380.22
2022-12-19T03:24:05.612Z,101352.16
2022-12-19T03:26:37.920Z,101373.16
2022-12-19T03:29:15.292Z,101364.47
2022-12-19T03:31:44.185Z,101364.47
2022-12-19T03:34:18.435Z,101363.66
2022-12-19T03:36:50.361Z,101364.50
2022-12-19T03:39:19.421Z,101355.88
2022-12-19T03:42:04.632Z,101361.09
2022-12-19T03:44:35.561Z,101361.25
2022-12-19T03:47:43.827Z,101356.19
2022-12-19T03:50:11.166Z,101353.66
2022-12-19T03:52:58.889Z,101345.81
2022-12-19T03:55:28.461Z,101362.38
2022-12-19T03:58:23.989Z,101361.50
2022-12-19T04:00:51.809Z,101325.84
2022-12-19T04:03:19.600Z,101352.94
2022-12-19T04:05:48.463Z,101365.22
2022-12-19T04:08:16.739Z,101352.28
2022-12-19T04:10:49.478Z,101356.66
2022-12-19T04:13:20.498Z,101323.50
2022-12-19T04:16:00.069Z,101345.38
2022-12-19T04:18:27.204Z,101343.63
2022-12-19T04:21:11.561Z,101340.19
2022-12-19T04:23:45.369Z,101319.13
2022-12-19T04:26:13.644Z,101341.72
2022-12-19T04:28:50.937Z,101344.28
2022-12-19T04:31:19.505Z,101344.47
2022-12-19T04:33:46.472Z,101316.56
2022-12-19T04:36:13.130Z,101324.50
2022-12-19T04:38:39.707Z,101307.06
2022-12-19T04:41:06.353Z,101301.91
2022-12-19T04:43:32.933Z,101327.34
2022-12-19T04:46:00.138Z,101318.75
2022-12-19T04:48:26.950Z,101321.31
2022-12-19T04:50:53.573Z,101292.53
2022-12-19T04:53:20.101Z,101321.34
2022-12-19T04:55:46.621Z,101317.81
2022-12-19T04:58:17.601Z,101297.69
2022-12-19T05:00:46.849Z,101317.84
2022-12-19T05:03:13.499Z,101319.56
2022-12-19T05:05:40.213Z,101317.84
2022-12-19T05:08:07.703Z,101293.41
2022-12-19T05:10:35.973Z,101322.22
2022-12-19T05:13:02.688Z,101329.09
2022-12-19T05:15:29.262Z,101297.59
2022-12-19T05:17:55.798Z,101316.78
2022-12-19T05:20:22.300Z,101323.78
2022-12-19T05:22:49.129Z,101326.47
2022-12-19T05:25:15.789Z,101323.94
2022-12-19T05:27:42.265Z,101329.22
2022-12-19T05:30:09.601Z,101311.09
2022-12-19T05:32:36.126Z,101301.63
2022-12-19T05:35:02.643Z,101312.75
2022-12-19T05:37:29.142Z,101318.00
2022-12-19T05:39:55.579Z,101319.72
2022-12-19T05:42:22.085Z,101323.22
2022-12-19T05:44:48.615Z,101318.84
2022-12-19T05:47:15.190Z,101318.94
2022-12-19T05:49:41.749Z,101285.81
2022-12-19T05:52:08.252Z,101280.59
2022-12-19T05:54:34.750Z,101320.72
2022-12-19T05:57:01.529Z,101305.13
2022-12-19T05:59:28.022Z,101280.72
2022-12-19T06:01:54.852Z,101305.16
2022-12-19T06:04:21.403Z,101310.47
2022-12-19T06:06:47.877Z,101303.50
2022-12-19T06:09:14.360Z,101293.91
2022-12-19T06:11:40.900Z,101308.78
2022-12-19T06:14:07.451Z,101307.06
2022-12-19T06:16:34.023Z,101304.41
2022-12-19T06:19:00.543Z,101307.06
2022-12-19T06:21:27.255Z,101317.44
2022-12-19T06:23:54.774Z,101316.50
2022-12-19T06:26:22.634Z,101311.28
2022-12-19T06:28:51.548Z,101322.56
2022-12-19T06:31:19.975Z,101320.88
2022-12-19T06:33:46.572Z,101303.47
2022-12-19T06:36:20.367Z,101315.72
2022-12-19T06:38:47.501Z,101326.13
2022-12-19T06:41:33.465Z,101319.16
2022-12-19T06:44:01.800Z,101318.34
2022-12-19T06:46:29.265Z,101327.97
2022-12-19T06:48:56.153Z,101322.81
2022-12-19T06:51:23.068Z,101318.50
2022-12-19T06:53:50.318Z,101277.41
2022-12-19T06:56:19.015Z,101313.31
2022-12-19T06:58:45.835Z,101309.88
2022-12-19T07:01:38.386Z,101314.22
2022-12-19T07:04:05.863Z,101309.00
2022-12-19T07:06:35.463Z,101310.72
2022-12-19T07:09:03.193Z,101307.22
2022-12-19T07:11:29.691Z,101287.31
2022-12-19T07:13:56.139Z,101293.34
2022-12-19T07:16:27.428Z,101292.50
2022-12-19T07:18:54.213Z,101289.94
2022-12-19T07:21:20.713Z,101267.19
2022-12-19T07:23:47.263Z,101298.69
2022-12-19T07:26:13.927Z,101274.31
2022-12-19T07:28:40.559Z,101306.53
2022-12-19T07:31:07.133Z,101297.72
2022-12-19T07:33:33.764Z,101298.59
2022-12-19T07:36:00.342Z,101294.22
2022-12-19T07:38:26.964Z,101297.78
2022-12-19T07:40:53.440Z,101309.97
2022-12-19T07:43:20.116Z,101304.66
2022-12-19T07:45:46.674Z,101305.53
2022-12-19T07:48:13.274Z,101308.09
2022-12-19T07:50:41.159Z,101320.25
2022-12-19T07:53:07.629Z,101316.69
2022-12-19T07:55:34.308Z,101278.31
2022-12-19T07:58:00.812Z,101314.13
2022-12-19T08:00:27.315Z,101313.28
2022-12-19T08:02:53.845Z,101319.41
2022-12-19T08:05:20.475Z,101306.41
2022-12-19T08:07:47.044Z,101302.06
2022-12-19T08:10:15.177Z,101298.59
2022-12-19T08:12:42.243Z,101296.00
2022-12-19T08:15:09.136Z,101279.44
2022-12-19T08:17:38.649Z,101309.09
2022-12-19T08:20:07.144Z,101304.72
2022-12-19T08:22:34.022Z,101280.25
2022-12-19T08:25:00.568Z,101300.31
2022-12-19T08:27:27.563Z,101309.97
2022-12-19T08:29:54.170Z,101285.56
2022-12-19T08:32:22.003Z,101276.91
2022-12-19T08:34:49.948Z,101302.31
2022-12-19T08:37:17.125Z,101305.84
2022-12-19T08:39:43.757Z,101302.34
2022-12-19T08:42:10.239Z,101287.44
2022-12-19T08:44:36.758Z,101303.16
2022-12-19T08:47:03.326Z,101297.03
2022-12-19T08:49:29.780Z,101300.53
2022-12-19T08:51:56.440Z,101288.34
2022-12-19T08:54:23.070Z,101277.97
2022-12-19T08:56:49.877Z,101256.19
2022-12-19T08:59:20.480Z,101264.91
2022-12-19T09:01:58.674Z,101302.38
2022-12-19T09:06:00.905Z,101300.66
2022-12-19T09:07:12.568Z,101285.03
2022-12-19T09:09:42.572Z,101285.91
2022-12-19T09:12:09.162Z,101302.41
2022-12-19T09:14:35.943Z,101299.00
2022-12-19T09:17:02.997Z,101301.63
2022-12-19T09:19:32.078Z,101303.38
2022-12-19T09:21:58.779Z,101303.44
2022-12-19T09:24:25.412Z,101295.59
2022-12-19T09:26:52.610Z,101307.78
2022-12-19T09:29:21.763Z,101301.69
2022-12-19T09:31:56.427Z,101300.88
2022-12-19T09:34:37.668Z,101281.78
2022-12-19T09:37:16.238Z,101267.88
2022-12-19T09:39:45.485Z,101302.78
2022-12-19T09:42:25.371Z,101296.72
2022-12-19T09:45:14.681Z,101292.41
2022-12-19T09:47:49.240Z,101293.34
2022-12-19T09:50:52.818Z,101298.56
2022-12-19T09:53:36.359Z,101286.41
2022-12-19T09:56:03.010Z,101289.00
2022-12-19T09:58:42.491Z,101297.72
2022-12-19T10:01:20.447Z,101277.72
2022-12-19T10:03:58.542Z,101281.25
2022-12-19T10:07:10.624Z,101286.53
2022-12-19T10:11:26.033Z,101281.31
2022-12-19T10:12:46.643Z,101279.59
2022-12-19T10:15:34.232Z,101278.75
2022-12-19T10:18:26.891Z,101284.00
2022-12-19T10:21:59.059Z,101269.22
2022-12-19T10:24:33.168Z,101268.34
2022-12-19T10:27:11.919Z,101264.03
2022-12-19T10:29:48.794Z,101232.66
2022-12-19T10:32:27.848Z,101251.00
2022-12-19T10:34:55.315Z,101254.53
2022-12-19T10:37:47.347Z,101251.06
2022-12-19T10:40:34.738Z,101259.75
2022-12-19T10:43:34.800Z,101255.41
2022-12-19T10:46:20.196Z,101249.38
2022-12-19T10:48:50.651Z,101230.16
2022-12-19T10:51:24.717Z,101236.25
2022-12-19T10:53:57.173Z,101258.88
2022-12-19T10:56:30.338Z,101258.00
2022-12-19T10:59:03.135Z,101264.03
2022-12-19T11:01:35.605Z,101248.34
2022-12-19T11:04:18.115Z,101240.56
2022-12-19T11:06:51.416Z,101231.84
2022-12-19T11:09:29.293Z,101221.47
2022-12-19T11:16:55.546Z,101204.09
2022-12-19T11:21:41.121Z,101200.66
2022-12-19T11:23:46.448Z,101206.72
2022-12-19T11:29:29.926Z,101207.63
2022-12-19T11:29:41.753Z,101203.25
2022-12-19T11:30:38.166Z,101206.72
2022-12-19T11:32:41.342Z,101208.50
2022-12-19T11:35:36.815Z,101206.75
2022-12-19T11:38:06.679Z,101202.38
2022-12-19T11:40:44.721Z,101186.69
2022-12-19T11:43:50.502Z,101186.72
2022-12-19T11:46:32.848Z,101178.94
2022-12-19T11:49:16.749Z,101185.88
2022-12-19T11:52:23.717Z,101147.53
2022-12-19T11:55:05.522Z,101177.16
2022-12-19T11:57:32.053Z,101168.44
2022-12-19T12:00:04.493Z,101174.56
2022-12-19T12:03:05.669Z,101178.06
2022-12-19T12:05:45.350Z,101173.75
2022-12-19T12:09:42.661Z,101167.66
2022-12-19T12:17:42.716Z,101158.09
2022-12-19T12:22:26.400Z,101161.56
2022-12-19T12:31:01.918Z,101157.22
2022-12-19T12:31:26.379Z,101150.25
2022-12-19T12:31:38.256Z,101156.34
2022-12-19T12:31:46.193Z,101146.78
2022-12-19T12:32:04.670Z,101144.16
2022-12-19T12:36:56.009Z,101114.53
2022-12-19T12:39:50.004Z,101132.84
2022-12-19T12:42:22.357Z,101118.06
2022-12-19T12:44:52.806Z,101124.13
2022-12-19T12:47:27.517Z,101136.28
2022-12-19T12:49:58.752Z,101130.22
2022-12-19T12:52:48.026Z,101136.28
2022-12-19T12:55:20.479Z,101138.88
2022-12-19T12:57:47.278Z,101139.75
2022-12-19T13:00:27.439Z,101134.53
2022-12-19T13:03:09.455Z,101108.41
2022-12-19T13:05:43.893Z,101133.69
2022-12-19T13:08:34.675Z,101114.56
2022-12-19T13:11:04.515Z,101117.16
2022-12-19T13:13:56.175Z,101131.06
2022-12-19T13:16:45.506Z,101124.19
2022-12-19T13:19:33.567Z,101111.16
2022-12-19T13:22:09.057Z,101111.19
2022-12-19T13:24:45.645Z,101113.78
2022-12-19T13:27:21.170Z,101110.34
2022-12-19T13:29:59.911Z,101112.06
2022-12-19T13:32:32.680Z,101075.50
2022-12-19T13:35:50.734Z,101110.31
2022-12-19T13:39:55.644Z,101092.91
2022-12-19T13:41:23.909Z,101094.66
2022-12-19T13:43:50.461Z,101111.19
2022-12-19T13:46:42.830Z,101112.03
2022-12-19T13:49:31.658Z,101115.53
2022-12-19T13:52:02.496Z,101096.44
2022-12-19T13:54:34.606Z,101101.66
2022-12-19T13:57:04.313Z,101104.25
2022-12-19T13:59:39.903Z,101108.59
2022-12-19T14:02:07.861Z,101116.41
2022-12-19T14:04:34.732Z,101103.34
2022-12-19T14:07:05.037Z,101099.88
2022-12-19T14:11:28.575Z,101051.09
2022-12-19T14:13:57.432Z,101081.59
2022-12-19T14:15:44.362Z,101092.03
2022-12-19T14:18:44.993Z,101099.00
2022-12-19T14:22:05.621Z,101106.81
2022-12-19T14:24:19.523Z,101056.28
2022-12-19T14:28:20.605Z,101098.03
2022-12-19T14:30:29.901Z,101085.03
2022-12-19T14:33:40.269Z,101088.53
2022-12-19T14:36:08.614Z,101098.97
2022-12-19T14:39:22.535Z,101105.97
2022-12-19T14:41:45.476Z,101062.41
2022-12-19T14:52:26.130Z,101112.00
2022-12-19T14:52:35.818Z,101098.09
2022-12-19T14:54:22.392Z,101088.50
2022-12-19T14:54:25.031Z,101090.22
2022-12-19T14:59:05.632Z,101086.72
2022-12-19T15:01:35.099Z,101096.34
2022-12-19T15:04:48.432Z,101093.72
2022-12-19T15:07:06.674Z,101066.75
2022-12-19T15:11:06.148Z,101085.03
2022-12-19T15:14:51.285Z,101089.34
2022-12-19T15:15:56.450Z,101078.88
2022-12-19T15:18:41.305Z,101084.94
2022-12-19T15:21:13.146Z,101095.38
2022-12-19T15:23:40.333Z,101070.16
2022-12-19T15:26:13.200Z,101071.00
2022-12-19T15:28:46.463Z,101067.56
2022-12-19T15:31:34.619Z,101061.47
2022-12-19T15:34:36.257Z,101063.19
2022-12-19T15:37:04.989Z,101051.00
2022-12-19T15:39:31.755Z,101056.22
2022-12-19T15:42:00.298Z,101056.22
2022-12-19T15:44:37.686Z,101047.50
2022-12-19T15:47:07.914Z,101045.75
2022-12-19T15:49:35.383Z,101050.97
2022-12-19T15:52:02.955Z,101062.25
2022-12-19T15:57:38.650Z,101056.22
2022-12-19T16:00:12.961Z,101011.81
2022-12-19T16:05:29.201Z,101012.72
2022-12-19T16:07:56.969Z,101044.94
2022-12-19T16:10:23.523Z,101040.59
2022-12-19T16:12:53.133Z,101000.56
2022-12-19T16:15:34.218Z,100990.13
2022-12-19T16:18:03.145Z,100994.47
2022-12-19T16:20:37.663Z,101037.97
2022-12-19T16:23:04.293Z,101039.72
2022-12-19T16:25:40.995Z,101038.84
2022-12-19T16:28:15.346Z,101033.63
2022-12-19T16:30:44.363Z,101024.97
2022-12-19T16:33:22.104Z,101018.00
2022-12-19T16:36:06.710Z,101018.88
2022-12-19T16:38:33.986Z,100989.25
2022-12-19T16:41:01.757Z,101018.03
2022-12-19T16:43:32.016Z,101011.06
2022-12-19T16:46:01.440Z,101006.72
2022-12-19T16:48:30.025Z,101008.41
2022-12-19T16:50:59.973Z,101012.81
2022-12-19T16:53:26.601Z,101020.59
2022-12-19T16:55:55.621Z,101016.25
2022-12-19T16:58:25.204Z,101015.34
2022-12-19T17:00:55.350Z,100971.81
2022-12-19T17:03:48.316Z,101027.50
2022-12-19T17:06:17.487Z,101021.44
2022-12-19T17:08:44.773Z,101023.19
2022-12-19T17:11:18.476Z,101021.47
2022-12-19T17:13:47.661Z,101023.19
2022-12-19T17:16:14.236Z,100995.31
2022-12-19T17:18:43.404Z,101037.09
2022-12-19T17:21:22.947Z,101047.53
2022-12-19T17:23:50.352Z,101035.34
2022-12-19T17:26:18.466Z,101030.16
2022-12-19T17:28:48.103Z,101033.59
2022-12-19T17:31:24.573Z,101040.50
2022-12-19T17:33:51.624Z,101050.13
2022-12-19T17:36:21.354Z,101027.56
2022-12-19T17:38:51.482Z,101021.50
2022-12-19T17:41:18.044Z,101017.19
2022-12-19T17:43:44.636Z,100987.59
2022-12-19T17:46:19.510Z,101005.00
2022-12-19T17:48:50.450Z,101010.25
2022-12-19T17:51:18.673Z,101011.13
2022-12-19T17:53:46.394Z,101005.03
2022-12-19T17:56:14.654Z,101015.50
2022-12-19T17:58:41.540Z,101025.94
2022-12-19T18:01:17.256Z,100978.06
2022-12-19T18:03:43.871Z,101006.84
2022-12-19T18:06:12.422Z,101002.50
2022-12-19T18:08:41.461Z,101002.53
2022-12-19T18:11:18.055Z,100999.03
2022-12-19T18:13:45.199Z,100992.06
2022-12-19T18:16:14.890Z,100985.09
2022-12-19T18:18:41.745Z,100987.72
2022-12-19T18:21:14.711Z,100979.91
2022-12-19T18:23:42.090Z,100962.53
2022-12-19T18:26:10.741Z,100982.50
2022-12-19T18:28:37.780Z,100938.16
2022-12-19T18:31:14.942Z,100966.88
2022-12-19T18:33:46.665Z,100959.06
2022-12-19T18:36:22.196Z,100951.19
2022-12-19T18:38:51.395Z,100980.78
2022-12-19T18:41:18.911Z,100956.41
2022-12-19T18:43:45.597Z,100987.69
2022-12-19T18:46:14.690Z,100984.22
2022-12-19T18:48:43.096Z,100990.28
2022-12-19T18:51:18.719Z,100985.97
2022-12-19T18:53:46.890Z,100986.75
2022-12-19T18:56:13.940Z,100993.75
2022-12-19T18:58:41.454Z,100991.13
2022-12-19T19:01:15.863Z,100998.06
2022-12-19T19:03:51.780Z,101004.13
2022-12-19T19:06:22.735Z,101007.63
2022-12-19T19:08:50.277Z,100997.19
2022-12-19T19:11:16.973Z,100997.19
2022-12-19T19:13:43.420Z,101015.47
2022-12-19T19:16:23.368Z,100999.84
2022-12-19T19:18:54.929Z,100977.28
2022-12-19T19:21:24.675Z,101000.72
2022-12-19T19:23:57.736Z,100986.81
2022-12-19T19:26:24.557Z,101003.38
2022-12-19T19:28:52.699Z,100992.94
2022-12-19T19:31:21.784Z,100991.22
2022-12-19T19:34:08.766Z,100991.22
2022-12-19T19:36:40.208Z,101000.78
2022-12-19T19:39:07.301Z,100996.44
2022-12-19T19:41:34.425Z,100982.50
2022-12-19T19:44:01.422Z,101001.69
2022-12-19T19:46:28.491Z,101001.69
2022-12-19T19:48:55.342Z,100984.28
2022-12-19T19:51:22.054Z,100998.19
2022-12-19T19:53:48.637Z,100999.06
2022-12-19T19:56:15.233Z,100987.78
2022-12-19T19:58:41.987Z,100983.41
2022-12-19T20:01:10.905Z,100990.38
2022-12-19T20:03:38.408Z,101004.25
2022-12-19T20:06:05.288Z,101014.66
2022-12-19T20:08:38.847Z,101011.19
2022-12-19T20:11:06.972Z,101010.34
2022-12-19T20:13:34.167Z,101015.59
2022-12-19T20:16:06.562Z,101016.47
2022-12-19T20:18:33.722Z,101008.66
2022-12-19T20:21:00.331Z,100964.31
2022-12-19T20:23:27.108Z,100995.66
2022-12-19T20:25:53.887Z,101000.00
2022-12-19T20:28:20.440Z,100992.19
2022-12-19T20:30:47.312Z,101004.41
2022-12-19T20:33:14.103Z,101026.09
2022-12-19T20:35:40.810Z,101025.25
2022-12-19T20:38:07.663Z,101033.94
2022-12-19T20:40:34.298Z,101037.44
2022-12-19T20:43:02.117Z,101027.88
2022-12-19T20:45:28.845Z,101019.19
2022-12-19T20:47:55.449Z,101028.75
2022-12-19T20:50:22.391Z,101018.31
2022-12-19T20:52:48.984Z,101016.56
2022-12-19T20:55:15.847Z,101015.72
2022-12-19T20:57:42.355Z,101020.06
2022-12-19T21:00:10.205Z,101019.19
2022-12-19T21:03:00.571Z,100975.72
2022-12-19T21:05:23.241Z,101013.13
2022-12-19T21:07:49.845Z,101022.69
2022-12-19T21:10:16.437Z,101017.47
2022-12-19T21:12:47.547Z,101025.31
2022-12-19T21:15:14.687Z,101016.63
2022-12-19T21:17:41.321Z,101021.81
2022-12-19T21:20:08.454Z,101012.25
2022-12-19T21:22:35.310Z,101018.31
2022-12-19T21:25:01.971Z,101014.84
2022-12-19T21:27:28.572Z,101017.47
2022-12-19T21:29:55.214Z,101016.59
2022-12-19T21:32:21.851Z,101024.41
2022-12-19T21:34:48.396Z,101022.66
2022-12-19T21:37:14.947Z,101004.38
2022-12-19T21:39:41.462Z,101018.31
2022-12-19T21:42:08.148Z,101014.84
2022-12-19T21:44:34.940Z,101004.38
2022-12-19T21:47:01.729Z,101006.16
2022-12-19T21:49:28.344Z,100986.97
2022-12-19T21:51:54.911Z,101018.28
2022-12-19T21:54:21.779Z,100997.44
2022-12-19T21:56:48.321Z,101008.75
2022-12-19T21:59:17.255Z,101014.84
2022-12-19T22:01:45.350Z,100991.34
2022-12-19T22:04:16.149Z,100982.66
2022-12-19T22:06:42.637Z,101007.88
2022-12-19T22:09:13.625Z,101004.41
2022-12-19T22:11:40.685Z,101004.41
2022-12-19T22:14:07.672Z,101000.94
2022-12-19T22:16:35.491Z,100999.22
2022-12-19T22:19:03.038Z,100995.72
2022-12-19T22:21:30.931Z,100994.00
2022-12-19T22:24:02.547Z,100980.06
2022-12-19T22:26:31.038Z,100973.09
2022-12-19T22:28:58.649Z,100965.28
2022-12-19T22:31:33.496Z,101000.06
2022-12-19T22:34:02.941Z,100971.38
2022-12-19T22:36:31.977Z,100997.47
2022-12-19T22:39:00.324Z,100988.78
2022-12-19T22:41:27.915Z,100980.94
2022-12-19T22:43:55.538Z,100980.09
2022-12-19T22:46:26.336Z,100992.25
2022-12-19T22:48:55.033Z,100983.56
2022-12-19T22:51:21.617Z,100962.69
2022-12-19T22:53:48.859Z,100982.69
2022-12-19T22:56:18.382Z,100962.69
2022-12-19T22:58:46.795Z,100969.63
2022-12-19T23:01:25.363Z,100974.84
2022-12-19T23:03:53.852Z,100990.50
2022-12-19T23:06:21.947Z,100981.81
2022-12-19T23:08:48.977Z,100976.59
2022-12-19T23:11:20.340Z,100968.75
2022-12-19T23:13:48.245Z,100973.13
2022-12-19T23:16:15.084Z,100972.25
2022-12-19T23:18:42.550Z,100967.91
2022-12-19T23:21:12.481Z,100967.91
2022-12-19T23:23:42.024Z,100973.13
2022-12-19T23:26:15.528Z,100975.72
2022-12-19T23:29:03.697Z,100961.81
2022-12-19T23:31:31.008Z,100969.66
2022-12-19T23:33:58.654Z,100963.56
2022-12-19T23:37:08.919Z,100966.16
2022-12-19T23:39:13.701Z,100974.84
2022-12-19T23:41:40.859Z,100968.75
2022-12-19T23:44:09.041Z,100963.53
2022-12-19T23:46:35.811Z,100968.75
2022-12-19T23:49:02.493Z,100960.06
2022-12-19T23:51:30.168Z,100954.84
2022-12-19T23:53:56.904Z,100924.41
2022-12-19T23:56:26.741Z,100953.97
2022-12-19T23:58:53.750Z,100959.19
